sensor_id;sensor_type;location;lat;lon;timestamp;P1;durP1;ratioP1;P2;durP2;ratioP2
12288;SDS011;6207;49.308;7.336;2023-02-08T00:00:03;24.30;;;14.73;;
12288;SDS011;6207;49.308;7.336;2023-02-08T00:02:31;15.33;;;13.80;;
12288;SDS011;6207;49.308;7.336;2023-02-08T00:04:57;15.93;;;14.40;;
12288;SDS011;6207;49.308;7.336;2023-02-08T00:07:24;16.13;;;14.43;;
12288;SDS011;6207;49.308;7.336;2023-02-08T00:09:51;16.47;;;13.90;;
12288;SDS011;6207;49.308;7.336;2023-02-08T00:12:17;16.07;;;14.47;;
12288;SDS011;6207;49.308;7.336;2023-02-08T00:14:44;15.23;;;13.70;;
12288;SDS011;6207;49.308;7.336;2023-02-08T00:17:10;16.07;;;13.53;;
12288;SDS011;6207;49.308;7.336;2023-02-08T00:19:37;15.17;;;13.77;;
12288;SDS011;6207;49.308;7.336;2023-02-08T00:22:04;16.27;;;14.53;;
12288;SDS011;6207;49.308;7.336;2023-02-08T00:24:30;15.53;;;13.90;;
12288;SDS011;6207;49.308;7.336;2023-02-08T00:26:57;16.30;;;14.60;;
12288;SDS011;6207;49.308;7.336;2023-02-08T00:29:24;15.10;;;13.53;;
12288;SDS011;6207;49.308;7.336;2023-02-08T00:31:50;14.77;;;13.20;;
12288;SDS011;6207;49.308;7.336;2023-02-08T00:34:17;15.67;;;14.17;;
12288;SDS011;6207;49.308;7.336;2023-02-08T00:36:44;18.17;;;14.13;;
12288;SDS011;6207;49.308;7.336;2023-02-08T00:39:10;15.20;;;13.60;;
12288;SDS011;6207;49.308;7.336;2023-02-08T00:41:37;15.37;;;13.70;;
12288;SDS011;6207;49.308;7.336;2023-02-08T00:44:04;17.10;;;14.73;;
12288;SDS011;6207;49.308;7.336;2023-02-08T00:46:30;19.67;;;15.70;;
12288;SDS011;6207;49.308;7.336;2023-02-08T00:48:57;17.60;;;14.37;;
12288;SDS011;6207;49.308;7.336;2023-02-08T00:51:23;16.80;;;13.47;;
12288;SDS011;6207;49.308;7.336;2023-02-08T00:53:50;18.63;;;15.53;;
12288;SDS011;6207;49.308;7.336;2023-02-08T00:56:17;15.93;;;14.33;;
12288;SDS011;6207;49.308;7.336;2023-02-08T00:58:43;19.70;;;14.83;;
12288;SDS011;6207;49.308;7.336;2023-02-08T01:01:10;17.63;;;14.27;;
12288;SDS011;6207;49.308;7.336;2023-02-08T01:03:38;19.57;;;14.13;;
12288;SDS011;6207;49.308;7.336;2023-02-08T01:06:07;15.80;;;14.10;;
12288;SDS011;6207;49.308;7.336;2023-02-08T01:08:35;15.80;;;13.67;;
12288;SDS011;6207;49.308;7.336;2023-02-08T01:11:03;15.57;;;13.93;;
12288;SDS011;6207;49.308;7.336;2023-02-08T01:13:33;17.27;;;14.37;;
12288;SDS011;6207;49.308;7.336;2023-02-08T01:16:05;17.00;;;14.50;;
12288;SDS011;6207;49.308;7.336;2023-02-08T01:18:37;17.93;;;14.43;;
12288;SDS011;6207;49.308;7.336;2023-02-08T01:21:05;16.97;;;15.23;;
12288;SDS011;6207;49.308;7.336;2023-02-08T01:23:33;15.93;;;13.40;;
12288;SDS011;6207;49.308;7.336;2023-02-08T01:26:00;14.87;;;13.47;;
12288;SDS011;6207;49.308;7.336;2023-02-08T01:28:27;16.00;;;13.67;;
12288;SDS011;6207;49.308;7.336;2023-02-08T01:30:53;21.67;;;14.40;;
12288;SDS011;6207;49.308;7.336;2023-02-08T01:33:20;15.03;;;13.50;;
12288;SDS011;6207;49.308;7.336;2023-02-08T01:35:50;15.77;;;13.60;;
12288;SDS011;6207;49.308;7.336;2023-02-08T01:38:18;17.37;;;14.53;;
12288;SDS011;6207;49.308;7.336;2023-02-08T01:40:45;17.97;;;13.43;;
12288;SDS011;6207;49.308;7.336;2023-02-08T01:43:18;15.63;;;13.40;;
12288;SDS011;6207;49.308;7.336;2023-02-08T01:45:47;15.17;;;13.60;;
12288;SDS011;6207;49.308;7.336;2023-02-08T01:48:16;14.67;;;13.17;;
12288;SDS011;6207;49.308;7.336;2023-02-08T01:50:58;14.20;;;12.80;;
12288;SDS011;6207;49.308;7.336;2023-02-08T01:53:30;16.03;;;13.07;;
12288;SDS011;6207;49.308;7.336;2023-02-08T01:55:59;13.93;;;12.43;;
12288;SDS011;6207;49.308;7.336;2023-02-08T01:58:29;14.87;;;13.20;;
12288;SDS011;6207;49.308;7.336;2023-02-08T02:00:59;15.67;;;13.60;;
12288;SDS011;6207;49.308;7.336;2023-02-08T02:03:28;15.53;;;13.80;;
12288;SDS011;6207;49.308;7.336;2023-02-08T02:05:56;15.03;;;13.37;;
12288;SDS011;6207;49.308;7.336;2023-02-08T02:08:29;17.53;;;13.23;;
12288;SDS011;6207;49.308;7.336;2023-02-08T02:10:55;13.77;;;12.43;;
12288;SDS011;6207;49.308;7.336;2023-02-08T02:13:23;14.37;;;12.43;;
12288;SDS011;6207;49.308;7.336;2023-02-08T02:15:51;14.83;;;13.17;;
12288;SDS011;6207;49.308;7.336;2023-02-08T02:18:23;14.53;;;13.03;;
12288;SDS011;6207;49.308;7.336;2023-02-08T02:32:02;15.93;;;12.73;;
12288;SDS011;6207;49.308;7.336;2023-02-08T02:34:39;20.87;;;13.27;;
12288;SDS011;6207;49.308;7.336;2023-02-08T02:40:29;14.70;;;13.20;;
12288;SDS011;6207;49.308;7.336;2023-02-08T02:43:22;13.20;;;11.90;;
12288;SDS011;6207;49.308;7.336;2023-02-08T02:54:37;13.83;;;12.43;;
12288;SDS011;6207;49.308;7.336;2023-02-08T02:57:15;15.90;;;13.20;;
12288;SDS011;6207;49.308;7.336;2023-02-08T02:59:47;15.80;;;13.13;;
12288;SDS011;6207;49.308;7.336;2023-02-08T03:02:13;14.97;;;13.40;;
12288;SDS011;6207;49.308;7.336;2023-02-08T03:23:57;14.97;;;13.03;;
12288;SDS011;6207;49.308;7.336;2023-02-08T03:29:27;13.63;;;12.13;;
12288;SDS011;6207;49.308;7.336;2023-02-08T03:31:59;13.50;;;12.10;;
12288;SDS011;6207;49.308;7.336;2023-02-08T03:37:15;15.80;;;13.17;;
12288;SDS011;6207;49.308;7.336;2023-02-08T03:39:43;15.60;;;12.63;;
12288;SDS011;6207;49.308;7.336;2023-02-08T03:42:16;14.07;;;12.63;;
12288;SDS011;6207;49.308;7.336;2023-02-08T03:44:50;13.93;;;12.43;;
12288;SDS011;6207;49.308;7.336;2023-02-08T03:47:33;14.03;;;12.57;;
12288;SDS011;6207;49.308;7.336;2023-02-08T03:50:05;14.37;;;12.90;;
12288;SDS011;6207;49.308;7.336;2023-02-08T03:52:37;13.43;;;12.03;;
12288;SDS011;6207;49.308;7.336;2023-02-08T03:55:05;13.53;;;12.20;;
12288;SDS011;6207;49.308;7.336;2023-02-08T03:57:37;14.27;;;12.77;;
12288;SDS011;6207;49.308;7.336;2023-02-08T04:00:15;13.60;;;12.20;;
12288;SDS011;6207;49.308;7.336;2023-02-08T04:05:18;14.73;;;13.10;;
12288;SDS011;6207;49.308;7.336;2023-02-08T04:07:46;15.60;;;12.83;;
12288;SDS011;6207;49.308;7.336;2023-02-08T04:10:13;14.13;;;12.37;;
12288;SDS011;6207;49.308;7.336;2023-02-08T04:12:40;13.90;;;12.50;;
12288;SDS011;6207;49.308;7.336;2023-02-08T04:15:07;14.83;;;12.93;;
12288;SDS011;6207;49.308;7.336;2023-02-08T04:17:34;14.57;;;13.03;;
12288;SDS011;6207;49.308;7.336;2023-02-08T04:20:01;14.20;;;12.70;;
12288;SDS011;6207;49.308;7.336;2023-02-08T04:22:28;13.50;;;12.10;;
12288;SDS011;6207;49.308;7.336;2023-02-08T04:24:55;14.33;;;12.83;;
12288;SDS011;6207;49.308;7.336;2023-02-08T04:27:21;14.40;;;12.67;;
12288;SDS011;6207;49.308;7.336;2023-02-08T04:29:48;14.00;;;12.60;;
12288;SDS011;6207;49.308;7.336;2023-02-08T04:32:14;15.33;;;13.10;;
12288;SDS011;6207;49.308;7.336;2023-02-08T04:34:41;14.37;;;12.97;;
12288;SDS011;6207;49.308;7.336;2023-02-08T04:37:08;14.50;;;12.67;;
12288;SDS011;6207;49.308;7.336;2023-02-08T04:39:36;14.53;;;12.90;;
12288;SDS011;6207;49.308;7.336;2023-02-08T04:42:03;15.33;;;13.17;;
12288;SDS011;6207;49.308;7.336;2023-02-08T04:44:30;13.63;;;12.20;;
12288;SDS011;6207;49.308;7.336;2023-02-08T04:46:58;13.53;;;12.10;;
12288;SDS011;6207;49.308;7.336;2023-02-08T04:49:25;12.90;;;11.80;;
12288;SDS011;6207;49.308;7.336;2023-02-08T04:51:52;13.40;;;12.10;;
12288;SDS011;6207;49.308;7.336;2023-02-08T04:54:19;15.90;;;11.97;;
12288;SDS011;6207;49.308;7.336;2023-02-08T04:56:46;15.40;;;11.70;;
12288;SDS011;6207;49.308;7.336;2023-02-08T04:59:13;14.17;;;12.77;;
12288;SDS011;6207;49.308;7.336;2023-02-08T05:01:39;12.57;;;11.47;;
12288;SDS011;6207;49.308;7.336;2023-02-08T05:04:06;14.77;;;13.30;;
12288;SDS011;6207;49.308;7.336;2023-02-08T05:06:33;13.10;;;11.80;;
12288;SDS011;6207;49.308;7.336;2023-02-08T05:08:59;12.90;;;11.60;;
12288;SDS011;6207;49.308;7.336;2023-02-08T05:11:26;12.50;;;11.20;;
12288;SDS011;6207;49.308;7.336;2023-02-08T05:13:53;13.63;;;12.33;;
12288;SDS011;6207;49.308;7.336;2023-02-08T05:16:19;13.87;;;12.43;;
12288;SDS011;6207;49.308;7.336;2023-02-08T05:18:46;14.63;;;12.97;;
12288;SDS011;6207;49.308;7.336;2023-02-08T05:21:13;13.30;;;11.83;;
12288;SDS011;6207;49.308;7.336;2023-02-08T05:23:39;14.17;;;12.67;;
12288;SDS011;6207;49.308;7.336;2023-02-08T05:26:06;15.37;;;12.83;;
12288;SDS011;6207;49.308;7.336;2023-02-08T05:28:34;14.73;;;12.03;;
12288;SDS011;6207;49.308;7.336;2023-02-08T05:33:57;12.43;;;11.20;;
12288;SDS011;6207;49.308;7.336;2023-02-08T05:36:23;12.93;;;11.73;;
12288;SDS011;6207;49.308;7.336;2023-02-08T05:38:50;13.63;;;12.23;;
12288;SDS011;6207;49.308;7.336;2023-02-08T05:41:18;13.60;;;12.17;;
12288;SDS011;6207;49.308;7.336;2023-02-08T05:43:45;13.43;;;12.23;;
12288;SDS011;6207;49.308;7.336;2023-02-08T05:46:12;14.70;;;12.83;;
12288;SDS011;6207;49.308;7.336;2023-02-08T05:48:38;13.60;;;12.20;;
12288;SDS011;6207;49.308;7.336;2023-02-08T05:51:05;12.87;;;11.73;;
12288;SDS011;6207;49.308;7.336;2023-02-08T05:53:32;13.53;;;12.30;;
12288;SDS011;6207;49.308;7.336;2023-02-08T05:55:59;12.67;;;11.47;;
12288;SDS011;6207;49.308;7.336;2023-02-08T05:58:26;13.53;;;11.67;;
12288;SDS011;6207;49.308;7.336;2023-02-08T06:00:53;13.43;;;12.13;;
12288;SDS011;6207;49.308;7.336;2023-02-08T06:03:20;12.97;;;11.80;;
12288;SDS011;6207;49.308;7.336;2023-02-08T06:05:47;13.30;;;11.90;;
12288;SDS011;6207;49.308;7.336;2023-02-08T06:08:13;16.30;;;12.43;;
12288;SDS011;6207;49.308;7.336;2023-02-08T06:10:40;15.30;;;12.40;;
12288;SDS011;6207;49.308;7.336;2023-02-08T06:13:07;13.27;;;12.00;;
12288;SDS011;6207;49.308;7.336;2023-02-08T06:15:34;15.97;;;13.77;;
12288;SDS011;6207;49.308;7.336;2023-02-08T06:18:01;14.63;;;13.10;;
12288;SDS011;6207;49.308;7.336;2023-02-08T06:20:28;14.63;;;13.10;;
12288;SDS011;6207;49.308;7.336;2023-02-08T06:22:54;14.13;;;12.63;;
12288;SDS011;6207;49.308;7.336;2023-02-08T06:25:21;13.30;;;11.90;;
12288;SDS011;6207;49.308;7.336;2023-02-08T06:27:48;14.80;;;13.30;;
12288;SDS011;6207;49.308;7.336;2023-02-08T06:30:15;14.37;;;12.90;;
12288;SDS011;6207;49.308;7.336;2023-02-08T06:32:41;15.23;;;13.60;;
12288;SDS011;6207;49.308;7.336;2023-02-08T06:35:08;15.77;;;13.13;;
12288;SDS011;6207;49.308;7.336;2023-02-08T06:37:35;14.17;;;12.67;;
12288;SDS011;6207;49.308;7.336;2023-02-08T06:40:02;19.33;;;14.50;;
12288;SDS011;6207;49.308;7.336;2023-02-08T06:42:30;18.37;;;13.40;;
12288;SDS011;6207;49.308;7.336;2023-02-08T06:44:56;14.27;;;12.77;;
12288;SDS011;6207;49.308;7.336;2023-02-08T06:47:24;16.17;;;13.30;;
12288;SDS011;6207;49.308;7.336;2023-02-08T06:49:52;14.87;;;13.27;;
12288;SDS011;6207;49.308;7.336;2023-02-08T06:52:19;15.60;;;14.00;;
12288;SDS011;6207;49.308;7.336;2023-02-08T06:54:46;15.83;;;13.60;;
12288;SDS011;6207;49.308;7.336;2023-02-08T06:57:13;14.87;;;13.30;;
12288;SDS011;6207;49.308;7.336;2023-02-08T06:59:40;13.97;;;12.60;;
12288;SDS011;6207;49.308;7.336;2023-02-08T07:02:10;15.50;;;13.90;;
12288;SDS011;6207;49.308;7.336;2023-02-08T07:04:41;15.60;;;13.00;;
12288;SDS011;6207;49.308;7.336;2023-02-08T07:07:08;15.40;;;13.40;;
12288;SDS011;6207;49.308;7.336;2023-02-08T07:09:37;16.17;;;14.07;;
12288;SDS011;6207;49.308;7.336;2023-02-08T07:12:04;15.60;;;13.80;;
12288;SDS011;6207;49.308;7.336;2023-02-08T07:14:31;15.00;;;13.50;;
12288;SDS011;6207;49.308;7.336;2023-02-08T07:17:00;14.73;;;13.33;;
12288;SDS011;6207;49.308;7.336;2023-02-08T07:19:27;13.73;;;12.53;;
12288;SDS011;6207;49.308;7.336;2023-02-08T07:21:54;14.63;;;13.13;;
12288;SDS011;6207;49.308;7.336;2023-02-08T07:24:22;19.57;;;13.70;;
12288;SDS011;6207;49.308;7.336;2023-02-08T07:26:49;14.77;;;13.27;;
12288;SDS011;6207;49.308;7.336;2023-02-08T07:29:15;14.90;;;13.57;;
12288;SDS011;6207;49.308;7.336;2023-02-08T07:31:42;13.73;;;12.57;;
12288;SDS011;6207;49.308;7.336;2023-02-08T07:34:09;14.60;;;13.17;;
12288;SDS011;6207;49.308;7.336;2023-02-08T07:36:35;14.83;;;13.33;;
12288;SDS011;6207;49.308;7.336;2023-02-08T07:39:02;15.90;;;14.30;;
12288;SDS011;6207;49.308;7.336;2023-02-08T07:41:29;15.67;;;14.20;;
12288;SDS011;6207;49.308;7.336;2023-02-08T07:43:55;15.27;;;13.73;;
12288;SDS011;6207;49.308;7.336;2023-02-08T07:46:24;14.87;;;13.47;;
12288;SDS011;6207;49.308;7.336;2023-02-08T07:48:51;15.67;;;14.07;;
12288;SDS011;6207;49.308;7.336;2023-02-08T07:51:18;15.27;;;13.77;;
12288;SDS011;6207;49.308;7.336;2023-02-08T07:53:45;14.33;;;13.03;;
12288;SDS011;6207;49.308;7.336;2023-02-08T07:56:11;14.87;;;13.57;;
12288;SDS011;6207;49.308;7.336;2023-02-08T07:58:38;16.60;;;14.23;;
12288;SDS011;6207;49.308;7.336;2023-02-08T08:01:05;16.00;;;14.53;;
12288;SDS011;6207;49.308;7.336;2023-02-08T08:03:47;15.90;;;13.87;;
12288;SDS011;6207;49.308;7.336;2023-02-08T08:06:15;15.73;;;14.27;;
12288;SDS011;6207;49.308;7.336;2023-02-08T08:08:41;20.13;;;15.70;;
12288;SDS011;6207;49.308;7.336;2023-02-08T08:11:15;16.40;;;14.90;;
12288;SDS011;6207;49.308;7.336;2023-02-08T08:13:43;17.33;;;15.63;;
12288;SDS011;6207;49.308;7.336;2023-02-08T08:16:10;18.33;;;16.63;;
12288;SDS011;6207;49.308;7.336;2023-02-08T08:18:37;18.53;;;16.83;;
12288;SDS011;6207;49.308;7.336;2023-02-08T08:21:03;19.37;;;17.57;;
12288;SDS011;6207;49.308;7.336;2023-02-08T08:23:30;18.40;;;16.83;;
12288;SDS011;6207;49.308;7.336;2023-02-08T08:26:18;17.67;;;16.07;;
12288;SDS011;6207;49.308;7.336;2023-02-08T08:28:46;17.30;;;15.80;;
12288;SDS011;6207;49.308;7.336;2023-02-08T08:31:17;17.50;;;16.00;;
12288;SDS011;6207;49.308;7.336;2023-02-08T08:33:47;17.73;;;16.10;;
12288;SDS011;6207;49.308;7.336;2023-02-08T08:36:14;17.20;;;15.47;;
12288;SDS011;6207;49.308;7.336;2023-02-08T08:38:41;18.27;;;16.77;;
12288;SDS011;6207;49.308;7.336;2023-02-08T08:41:08;17.40;;;16.00;;
12288;SDS011;6207;49.308;7.336;2023-02-08T08:43:37;17.57;;;16.17;;
12288;SDS011;6207;49.308;7.336;2023-02-08T08:46:04;17.70;;;16.07;;
12288;SDS011;6207;49.308;7.336;2023-02-08T08:48:34;17.83;;;16.20;;
12288;SDS011;6207;49.308;7.336;2023-02-08T08:51:01;17.60;;;16.20;;
12288;SDS011;6207;49.308;7.336;2023-02-08T08:53:29;16.60;;;15.30;;
12288;SDS011;6207;49.308;7.336;2023-02-08T08:55:55;16.73;;;15.33;;
12288;SDS011;6207;49.308;7.336;2023-02-08T08:58:22;18.37;;;16.97;;
12288;SDS011;6207;49.308;7.336;2023-02-08T09:00:48;17.63;;;16.23;;
12288;SDS011;6207;49.308;7.336;2023-02-08T09:03:15;17.30;;;15.80;;
12288;SDS011;6207;49.308;7.336;2023-02-08T09:05:42;17.57;;;16.27;;
12288;SDS011;6207;49.308;7.336;2023-02-08T09:08:08;17.50;;;16.10;;
12288;SDS011;6207;49.308;7.336;2023-02-08T09:10:35;18.43;;;16.77;;
12288;SDS011;6207;49.308;7.336;2023-02-08T09:13:02;18.17;;;16.77;;
12288;SDS011;6207;49.308;7.336;2023-02-08T09:15:28;18.23;;;16.53;;
12288;SDS011;6207;49.308;7.336;2023-02-08T09:17:55;17.63;;;16.23;;
12288;SDS011;6207;49.308;7.336;2023-02-08T09:20:22;17.07;;;15.77;;
12288;SDS011;6207;49.308;7.336;2023-02-08T09:22:49;17.93;;;16.43;;
12288;SDS011;6207;49.308;7.336;2023-02-08T09:25:16;17.97;;;16.57;;
12288;SDS011;6207;49.308;7.336;2023-02-08T09:27:43;18.23;;;16.83;;
12288;SDS011;6207;49.308;7.336;2023-02-08T09:30:10;18.00;;;16.50;;
12288;SDS011;6207;49.308;7.336;2023-02-08T09:32:37;17.30;;;15.90;;
12288;SDS011;6207;49.308;7.336;2023-02-08T09:35:08;17.70;;;16.10;;
12288;SDS011;6207;49.308;7.336;2023-02-08T09:37:34;17.53;;;16.03;;
12288;SDS011;6207;49.308;7.336;2023-02-08T09:40:01;17.40;;;16.10;;
12288;SDS011;6207;49.308;7.336;2023-02-08T09:42:36;18.00;;;16.80;;
12288;SDS011;6207;49.308;7.336;2023-02-08T09:45:14;18.30;;;16.77;;
12288;SDS011;6207;49.308;7.336;2023-02-08T09:50:53;17.57;;;15.97;;
12288;SDS011;6207;49.308;7.336;2023-02-08T09:53:31;16.87;;;15.57;;
12288;SDS011;6207;49.308;7.336;2023-02-08T09:56:10;17.60;;;16.20;;
12288;SDS011;6207;49.308;7.336;2023-02-08T09:58:40;17.00;;;15.73;;
12288;SDS011;6207;49.308;7.336;2023-02-08T10:01:12;16.87;;;15.67;;
12288;SDS011;6207;49.308;7.336;2023-02-08T10:03:44;18.13;;;16.63;;
12288;SDS011;6207;49.308;7.336;2023-02-08T10:06:14;16.90;;;15.50;;
12288;SDS011;6207;49.308;7.336;2023-02-08T10:08:42;16.90;;;15.60;;
12288;SDS011;6207;49.308;7.336;2023-02-08T10:29:15;17.20;;;15.97;;
12288;SDS011;6207;49.308;7.336;2023-02-08T10:32:06;17.67;;;16.37;;
12288;SDS011;6207;49.308;7.336;2023-02-08T10:37:28;17.60;;;16.20;;
12288;SDS011;6207;49.308;7.336;2023-02-08T10:40:06;16.77;;;15.57;;
12288;SDS011;6207;49.308;7.336;2023-02-08T10:45:47;16.57;;;15.40;;
12288;SDS011;6207;49.308;7.336;2023-02-08T10:48:26;17.27;;;15.93;;
12288;SDS011;6207;49.308;7.336;2023-02-08T10:51:17;17.00;;;15.70;;
12288;SDS011;6207;49.308;7.336;2023-02-08T10:53:46;15.67;;;14.60;;
12288;SDS011;6207;49.308;7.336;2023-02-08T10:58:56;15.33;;;14.30;;
12288;SDS011;6207;49.308;7.336;2023-02-08T11:01:24;14.53;;;13.63;;
12288;SDS011;6207;49.308;7.336;2023-02-08T11:04:03;14.00;;;13.10;;
12288;SDS011;6207;49.308;7.336;2023-02-08T11:06:31;14.20;;;13.30;;
12288;SDS011;6207;49.308;7.336;2023-02-08T11:08:58;14.90;;;13.70;;
12288;SDS011;6207;49.308;7.336;2023-02-08T11:11:25;14.73;;;13.73;;
12288;SDS011;6207;49.308;7.336;2023-02-08T11:14:04;14.10;;;13.20;;
12288;SDS011;6207;49.308;7.336;2023-02-08T11:16:35;13.73;;;12.83;;
12288;SDS011;6207;49.308;7.336;2023-02-08T11:19:03;14.27;;;13.37;;
12288;SDS011;6207;49.308;7.336;2023-02-08T11:21:33;14.90;;;13.90;;
12288;SDS011;6207;49.308;7.336;2023-02-08T11:26:49;14.40;;;13.40;;
12288;SDS011;6207;49.308;7.336;2023-02-08T11:29:19;14.73;;;13.73;;
12288;SDS011;6207;49.308;7.336;2023-02-08T11:36:54;14.20;;;13.30;;
12288;SDS011;6207;49.308;7.336;2023-02-08T11:39:26;14.10;;;13.20;;
12288;SDS011;6207;49.308;7.336;2023-02-08T11:42:01;14.27;;;13.37;;
12288;SDS011;6207;49.308;7.336;2023-02-08T11:44:31;14.37;;;13.47;;
12288;SDS011;6207;49.308;7.336;2023-02-08T11:47:04;14.57;;;13.57;;
12288;SDS011;6207;49.308;7.336;2023-02-08T11:49:37;14.57;;;13.60;;
12288;SDS011;6207;49.308;7.336;2023-02-08T11:52:06;15.07;;;14.03;;
12288;SDS011;6207;49.308;7.336;2023-02-08T11:54:45;14.60;;;13.60;;
12288;SDS011;6207;49.308;7.336;2023-02-08T11:57:22;15.33;;;14.33;;
12288;SDS011;6207;49.308;7.336;2023-02-08T11:59:51;14.53;;;13.53;;
12288;SDS011;6207;49.308;7.336;2023-02-08T12:02:41;13.70;;;12.77;;
12288;SDS011;6207;49.308;7.336;2023-02-08T12:05:10;13.90;;;13.00;;
12288;SDS011;6207;49.308;7.336;2023-02-08T12:16:27;13.60;;;12.80;;
12288;SDS011;6207;49.308;7.336;2023-02-08T12:28:15;13.80;;;12.70;;
12288;SDS011;6207;49.308;7.336;2023-02-08T12:34:16;13.03;;;12.33;;
12288;SDS011;6207;49.308;7.336;2023-02-08T12:48:39;14.43;;;13.40;;
12288;SDS011;6207;49.308;7.336;2023-02-08T12:54:02;13.13;;;12.43;;
12288;SDS011;6207;49.308;7.336;2023-02-08T12:56:37;13.70;;;12.90;;
12288;SDS011;6207;49.308;7.336;2023-02-08T12:59:18;13.77;;;12.97;;
12288;SDS011;6207;49.308;7.336;2023-02-08T13:01:59;13.87;;;12.97;;
12288;SDS011;6207;49.308;7.336;2023-02-08T13:04:35;13.67;;;12.87;;
12288;SDS011;6207;49.308;7.336;2023-02-08T13:07:10;13.30;;;12.60;;
12288;SDS011;6207;49.308;7.336;2023-02-08T13:10:03;13.77;;;12.97;;
12288;SDS011;6207;49.308;7.336;2023-02-08T13:12:47;13.40;;;12.60;;
12288;SDS011;6207;49.308;7.336;2023-02-08T13:18:26;13.90;;;13.10;;
12288;SDS011;6207;49.308;7.336;2023-02-08T13:20:59;14.27;;;13.27;;
12288;SDS011;6207;49.308;7.336;2023-02-08T13:23:36;13.57;;;12.77;;
12288;SDS011;6207;49.308;7.336;2023-02-08T13:26:18;14.53;;;13.73;;
12288;SDS011;6207;49.308;7.336;2023-02-08T13:28:53;13.77;;;13.00;;
12288;SDS011;6207;49.308;7.336;2023-02-08T13:31:26;14.63;;;13.53;;
12288;SDS011;6207;49.308;7.336;2023-02-08T13:33:58;14.13;;;13.23;;
12288;SDS011;6207;49.308;7.336;2023-02-08T13:36:51;13.97;;;13.13;;
12288;SDS011;6207;49.308;7.336;2023-02-08T13:39:27;13.73;;;12.93;;
12288;SDS011;6207;49.308;7.336;2023-02-08T13:42:02;14.43;;;13.50;;
12288;SDS011;6207;49.308;7.336;2023-02-08T13:44:34;14.57;;;13.67;;
12288;SDS011;6207;49.308;7.336;2023-02-08T13:47:04;14.53;;;13.53;;
12288;SDS011;6207;49.308;7.336;2023-02-08T14:03:10;14.37;;;13.47;;
12288;SDS011;6207;49.308;7.336;2023-02-08T14:05:50;13.87;;;13.17;;
12288;SDS011;6207;49.308;7.336;2023-02-08T14:11:02;14.23;;;13.40;;
12288;SDS011;6207;49.308;7.336;2023-02-08T14:14:01;13.77;;;12.87;;
12288;SDS011;6207;49.308;7.336;2023-02-08T14:18:59;13.60;;;12.77;;
12288;SDS011;6207;49.308;7.336;2023-02-08T14:24:00;13.10;;;12.30;;
12288;SDS011;6207;49.308;7.336;2023-02-08T14:26:30;13.77;;;12.77;;
12288;SDS011;6207;49.308;7.336;2023-02-08T14:29:00;14.13;;;13.23;;
12288;SDS011;6207;49.308;7.336;2023-02-08T14:31:37;14.90;;;13.90;;
12288;SDS011;6207;49.308;7.336;2023-02-08T14:34:19;13.80;;;13.00;;
12288;SDS011;6207;49.308;7.336;2023-02-08T14:36:56;14.13;;;13.23;;
12288;SDS011;6207;49.308;7.336;2023-02-08T14:39:26;13.50;;;12.70;;
12288;SDS011;6207;49.308;7.336;2023-02-08T14:41:56;14.27;;;13.10;;
12288;SDS011;6207;49.308;7.336;2023-02-08T14:47:09;14.47;;;13.33;;
12288;SDS011;6207;49.308;7.336;2023-02-08T14:52:50;14.50;;;13.57;;
12288;SDS011;6207;49.308;7.336;2023-02-08T14:55:39;13.73;;;12.93;;
12288;SDS011;6207;49.308;7.336;2023-02-08T14:58:12;15.03;;;14.13;;
12288;SDS011;6207;49.308;7.336;2023-02-08T15:00:44;14.70;;;13.70;;
12288;SDS011;6207;49.308;7.336;2023-02-08T15:03:13;14.77;;;13.87;;
12288;SDS011;6207;49.308;7.336;2023-02-08T15:06:01;14.43;;;13.53;;
12288;SDS011;6207;49.308;7.336;2023-02-08T15:08:40;14.10;;;13.27;;
12288;SDS011;6207;49.308;7.336;2023-02-08T15:11:17;14.30;;;13.37;;
12288;SDS011;6207;49.308;7.336;2023-02-08T15:13:50;14.50;;;13.50;;
12288;SDS011;6207;49.308;7.336;2023-02-08T15:16:19;14.40;;;13.50;;
12288;SDS011;6207;49.308;7.336;2023-02-08T15:18:47;13.37;;;12.63;;
12288;SDS011;6207;49.308;7.336;2023-02-08T15:21:17;14.60;;;13.60;;
12288;SDS011;6207;49.308;7.336;2023-02-08T15:24:03;14.43;;;13.53;;
12288;SDS011;6207;49.308;7.336;2023-02-08T15:26:49;14.60;;;13.60;;
12288;SDS011;6207;49.308;7.336;2023-02-08T15:29:21;14.10;;;13.20;;
12288;SDS011;6207;49.308;7.336;2023-02-08T15:32:04;14.90;;;13.80;;
12288;SDS011;6207;49.308;7.336;2023-02-08T15:34:41;14.60;;;13.60;;
12288;SDS011;6207;49.308;7.336;2023-02-08T15:37:16;14.47;;;13.57;;
12288;SDS011;6207;49.308;7.336;2023-02-08T15:39:45;14.50;;;13.60;;
12288;SDS011;6207;49.308;7.336;2023-02-08T15:42:20;15.40;;;14.30;;
12288;SDS011;6207;49.308;7.336;2023-02-08T15:44:50;15.60;;;14.50;;
12288;SDS011;6207;49.308;7.336;2023-02-08T15:47:19;16.23;;;15.03;;
12288;SDS011;6207;49.308;7.336;2023-02-08T15:49:50;15.87;;;14.73;;
12288;SDS011;6207;49.308;7.336;2023-02-08T15:52:20;15.93;;;14.73;;
12288;SDS011;6207;49.308;7.336;2023-02-08T15:54:49;14.50;;;13.40;;
12288;SDS011;6207;49.308;7.336;2023-02-08T15:58:00;16.07;;;14.97;;
12288;SDS011;6207;49.308;7.336;2023-02-08T16:00:20;15.13;;;13.97;;
12288;SDS011;6207;49.308;7.336;2023-02-08T16:02:55;15.70;;;14.33;;
12288;SDS011;6207;49.308;7.336;2023-02-08T16:05:25;16.90;;;15.60;;
12288;SDS011;6207;49.308;7.336;2023-02-08T16:07:56;16.30;;;15.00;;
12288;SDS011;6207;49.308;7.336;2023-02-08T16:10:28;16.73;;;15.43;;
12288;SDS011;6207;49.308;7.336;2023-02-08T16:13:04;15.77;;;14.67;;
12288;SDS011;6207;49.308;7.336;2023-02-08T16:15:43;15.67;;;14.57;;
12288;SDS011;6207;49.308;7.336;2023-02-08T16:21:17;17.60;;;16.10;;
12288;SDS011;6207;49.308;7.336;2023-02-08T16:26:48;16.33;;;15.13;;
12288;SDS011;6207;49.308;7.336;2023-02-08T16:29:22;16.37;;;15.17;;
12288;SDS011;6207;49.308;7.336;2023-02-08T16:31:56;15.30;;;14.20;;
12288;SDS011;6207;49.308;7.336;2023-02-08T16:34:26;16.87;;;15.57;;
12288;SDS011;6207;49.308;7.336;2023-02-08T16:36:54;16.50;;;15.20;;
12288;SDS011;6207;49.308;7.336;2023-02-08T16:39:38;18.00;;;16.43;;
12288;SDS011;6207;49.308;7.336;2023-02-08T16:42:20;16.80;;;15.17;;
12288;SDS011;6207;49.308;7.336;2023-02-08T16:44:56;17.37;;;15.87;;
12288;SDS011;6207;49.308;7.336;2023-02-08T16:47:35;16.83;;;15.53;;
12288;SDS011;6207;49.308;7.336;2023-02-08T16:50:13;16.20;;;14.90;;
12288;SDS011;6207;49.308;7.336;2023-02-08T16:52:47;18.17;;;16.67;;
12288;SDS011;6207;49.308;7.336;2023-02-08T16:55:22;16.90;;;15.33;;
12288;SDS011;6207;49.308;7.336;2023-02-08T16:57:51;16.77;;;15.33;;
12288;SDS011;6207;49.308;7.336;2023-02-08T17:00:21;16.40;;;15.23;;
12288;SDS011;6207;49.308;7.336;2023-02-08T17:02:57;16.70;;;15.40;;
12288;SDS011;6207;49.308;7.336;2023-02-08T17:05:25;17.10;;;15.77;;
12288;SDS011;6207;49.308;7.336;2023-02-08T17:07:54;17.97;;;16.60;;
12288;SDS011;6207;49.308;7.336;2023-02-08T17:10:23;16.70;;;15.50;;
12288;SDS011;6207;49.308;7.336;2023-02-08T17:12:54;16.00;;;14.57;;
12288;SDS011;6207;49.308;7.336;2023-02-08T17:15:42;16.47;;;15.13;;
12288;SDS011;6207;49.308;7.336;2023-02-08T17:18:09;17.03;;;15.63;;
12288;SDS011;6207;49.308;7.336;2023-02-08T17:20:37;17.00;;;15.60;;
12288;SDS011;6207;49.308;7.336;2023-02-08T17:23:05;16.77;;;15.37;;
12288;SDS011;6207;49.308;7.336;2023-02-08T17:25:32;17.10;;;15.60;;
12288;SDS011;6207;49.308;7.336;2023-02-08T17:28:00;17.47;;;16.07;;
12288;SDS011;6207;49.308;7.336;2023-02-08T17:33:01;16.37;;;15.27;;
12288;SDS011;6207;49.308;7.336;2023-02-08T17:35:29;16.93;;;15.63;;
12288;SDS011;6207;49.308;7.336;2023-02-08T17:37:56;16.70;;;15.33;;